Aviation Digital Data Service (ADDS)

Output produced by METARs form (0118 UTC 06 December 2019)
found at http://www.aviationweather.gov/metar/data/
 
METAR text: KCCR 060053Z 36003KT 6SM HZ OVC031 13/10 A3004 RMK AO2 SLP158 T01280100
Conditions at: KCCR (CONCORD , CA, US) observed 0053 UTC 06 December 2019
Temperature: 12.8°C (55°F)
Dewpoint: 10.0°C (50°F) [RH = 83%]
Pressure (altimeter): 30.04 inches Hg (1017.4 mb)
[Sea-level pressure: 1015.8 mb]
Winds: from the N (360 degrees) at 3 MPH (3 knots; 1.5 m/s)
Visibility: 6 miles (10 km)
Ceiling: 3100 feet AGL
Clouds: overcast cloud deck at 3100 feet AGL
Weather: HZ  (haze)

METAR text: KCCR 052353Z 00000KT 6SM HZ OVC055 13/10 A3005 RMK AO2 SLP160 T01280100 10139 20122 56008
Conditions at: KCCR (CONCORD , CA, US) observed 2353 UTC 05 December 2019
Temperature: 12.8°C (55°F)
Dewpoint: 10.0°C (50°F) [RH = 83%]
Pressure (altimeter): 30.05 inches Hg (1017.7 mb)
[Sea-level pressure: 1016.0 mb]
Winds: calm
Visibility: 6 miles (10 km)
Ceiling: 5500 feet AGL
Clouds: overcast cloud deck at 5500 feet AGL
Weather: HZ  (haze)

METAR text: KCCR 052253Z 04004KT 6SM HZ OVC050 13/10 A3005 RMK AO2 SLP161 T01280100
Conditions at: KCCR (CONCORD , CA, US) observed 2253 UTC 05 December 2019
Temperature: 12.8°C (55°F)
Dewpoint: 10.0°C (50°F) [RH = 83%]
Pressure (altimeter): 30.05 inches Hg (1017.7 mb)
[Sea-level pressure: 1016.1 mb]
Winds: from the NE (40 degrees) at 5 MPH (4 knots; 2.1 m/s)
Visibility: 6 miles (10 km)
Ceiling: 5000 feet AGL
Clouds: overcast cloud deck at 5000 feet AGL
Weather: HZ  (haze)

METAR text: KCCR 052153Z 04006KT 6SM HZ FEW017 OVC044 13/11 A3006 RMK AO2 SLP165 T01330106
Conditions at: KCCR (CONCORD , CA, US) observed 2153 UTC 05 December 2019
Temperature: 13.3°C (56°F)
Dewpoint: 10.6°C (51°F) [RH = 84%]
Pressure (altimeter): 30.06 inches Hg (1018.0 mb)
[Sea-level pressure: 1016.5 mb]
Winds: from the NE (40 degrees) at 7 MPH (6 knots; 3.1 m/s)
Visibility: 6 miles (10 km)
Ceiling: 4400 feet AGL
Clouds: few clouds at 1700 feet AGL
overcast cloud deck at 4400 feet AGL
Weather: HZ  (haze)

METAR text: KCCR 052124Z 05004KT 6SM HZ SCT014 OVC041 13/11 A3006 RMK AO2 T01330106
Conditions at: KCCR (CONCORD , CA, US) observed 2124 UTC 05 December 2019
Temperature: 13.3°C (56°F)
Dewpoint: 10.6°C (51°F) [RH = 84%]
Pressure (altimeter): 30.06 inches Hg (1018.0 mb)
Winds: from the NE (50 degrees) at 5 MPH (4 knots; 2.1 m/s)
Visibility: 6 miles (10 km)
Ceiling: 4100 feet AGL
Clouds: scattered clouds at 1400 feet AGL
overcast cloud deck at 4100 feet AGL
Weather: HZ  (haze)

METAR text: KCCR 052104Z 03006KT 6SM BR OVC014 13/11 A3006 RMK AO2 T01330111
Conditions at: KCCR (CONCORD , CA, US) observed 2104 UTC 05 December 2019
Temperature: 13.3°C (56°F)
Dewpoint: 11.1°C (52°F) [RH = 87%]
Pressure (altimeter): 30.06 inches Hg (1018.0 mb)
Winds: from the NNE (30 degrees) at 7 MPH (6 knots; 3.1 m/s)
Visibility: 6 miles (10 km)
Ceiling: 1400 feet AGL
Clouds: overcast cloud deck at 1400 feet AGL
Weather: BR  (mist)

METAR text: KCCR 052053Z 03005KT 7SM OVC015 13/11 A3007 RMK AO2 SLP168 T01330106 58012
Conditions at: KCCR (CONCORD , CA, US) observed 2053 UTC 05 December 2019
Temperature: 13.3°C (56°F)
Dewpoint: 10.6°C (51°F) [RH = 84%]
Pressure (altimeter): 30.07 inches Hg (1018.4 mb)
[Sea-level pressure: 1016.8 mb]
Winds: from the NNE (30 degrees) at 6 MPH (5 knots; 2.6 m/s)
Visibility: 7 miles (11 km)
Ceiling: 1500 feet AGL
Clouds: overcast cloud deck at 1500 feet AGL
Weather: no significant weather observed at this time

METAR text: KCCR 052032Z 03004KT 8SM OVC015 13/11 A3007 RMK AO2 T01330106
Conditions at: KCCR (CONCORD , CA, US) observed 2032 UTC 05 December 2019
Temperature: 13.3°C (56°F)
Dewpoint: 10.6°C (51°F) [RH = 84%]
Pressure (altimeter): 30.07 inches Hg (1018.4 mb)
Winds: from the NNE (30 degrees) at 5 MPH (4 knots; 2.1 m/s)
Visibility: 8 miles (13 km)
Ceiling: 1500 feet AGL
Clouds: overcast cloud deck at 1500 feet AGL
Weather: no significant weather observed at this time

METAR text: KCCR 051953Z VRB05KT 6SM HZ OVC013 13/10 A3009 RMK AO2 SLP175 T01330100
Conditions at: KCCR (CONCORD , CA, US) observed 1953 UTC 05 December 2019
Temperature: 13.3°C (56°F)
Dewpoint: 10.0°C (50°F) [RH = 80%]
Pressure (altimeter): 30.09 inches Hg (1019.0 mb)
[Sea-level pressure: 1017.5 mb]
Winds: variable direction winds at 6 MPH (5 knots; 2.6 m/s)
Visibility: 6 miles (10 km)
Ceiling: 1300 feet AGL
Clouds: overcast cloud deck at 1300 feet AGL
Weather: HZ  (haze)

METAR text: KCCR 051853Z 07004KT 6SM HZ OVC010 13/10 A3011 RMK AO2 SLP181 T01280100
Conditions at: KCCR (CONCORD , CA, US) observed 1853 UTC 05 December 2019
Temperature: 12.8°C (55°F)
Dewpoint: 10.0°C (50°F) [RH = 83%]
Pressure (altimeter): 30.11 inches Hg (1019.7 mb)
[Sea-level pressure: 1018.1 mb]
Winds: from the ENE (70 degrees) at 5 MPH (4 knots; 2.1 m/s)
Visibility: 6 miles (10 km)
Ceiling: 1000 feet AGL
Clouds: overcast cloud deck at 1000 feet AGL
Weather: HZ  (haze)

METAR text: KCCR 051753Z 7SM SCT009 OVC013 12/10 A3010 RMK AO2 SLP180 T01220100 10122 20111 50007
Conditions at: KCCR (CONCORD , CA, US) observed 1753 UTC 05 December 2019
Temperature: 12.2°C (54°F)
Dewpoint: 10.0°C (50°F) [RH = 86%]
Pressure (altimeter): 30.10 inches Hg (1019.4 mb)
[Sea-level pressure: 1018.0 mb]
Winds: missing
Visibility: 7 miles (11 km)
Ceiling: 1300 feet AGL
Clouds: scattered clouds at 900 feet AGL
overcast cloud deck at 1300 feet AGL
Weather: no significant weather observed at this time

METAR text: KCCR 051751Z 7SM SCT009 OVC013 12/10 A3010 RMK AO2
Conditions at: KCCR (CONCORD , CA, US) observed 1751 UTC 05 December 2019
Temperature: 12.0°C (54°F)
Dewpoint: 10.0°C (50°F) [RH = 88%]
Pressure (altimeter): 30.10 inches Hg (1019.4 mb)
Winds: missing
Visibility: 7 miles (11 km)
Ceiling: 1300 feet AGL
Clouds: scattered clouds at 900 feet AGL
overcast cloud deck at 1300 feet AGL
Weather: no significant weather observed at this time

METAR text: KCCR 051704Z 16003KT 6SM BR OVC011 12/10 A3010 RMK AO2 T01170100
Conditions at: KCCR (CONCORD , CA, US) observed 1704 UTC 05 December 2019
Temperature: 11.7°C (53°F)
Dewpoint: 10.0°C (50°F) [RH = 89%]
Pressure (altimeter): 30.10 inches Hg (1019.4 mb)
Winds: from the SSE (160 degrees) at 3 MPH (3 knots; 1.5 m/s)
Visibility: 6 miles (10 km)
Ceiling: 1100 feet AGL
Clouds: overcast cloud deck at 1100 feet AGL
Weather: BR  (mist)

METAR text: KCCR 051653Z 13004KT 5SM BR SCT004 OVC009 12/10 A3010 RMK AO2 SLP178 T01170100
Conditions at: KCCR (CONCORD , CA, US) observed 1653 UTC 05 December 2019
Temperature: 11.7°C (53°F)
Dewpoint: 10.0°C (50°F) [RH = 89%]
Pressure (altimeter): 30.10 inches Hg (1019.4 mb)
[Sea-level pressure: 1017.8 mb]
Winds: from the SE (130 degrees) at 5 MPH (4 knots; 2.1 m/s)
Visibility: 5 miles ( 8 km)
Ceiling: 900 feet AGL
Clouds: scattered clouds at 400 feet AGL
overcast cloud deck at 900 feet AGL
Weather: BR  (mist)

METAR text: KCCR 051553Z 16003KT 6SM BR OVC011 12/09 A3008 RMK AO2 SLP172 T01170094
Conditions at: KCCR (CONCORD , CA, US) observed 1553 UTC 05 December 2019
Temperature: 11.7°C (53°F)
Dewpoint: 9.4°C (49°F) [RH = 86%]
Pressure (altimeter): 30.08 inches Hg (1018.7 mb)
[Sea-level pressure: 1017.2 mb]
Winds: from the SSE (160 degrees) at 3 MPH (3 knots; 1.5 m/s)
Visibility: 6 miles (10 km)
Ceiling: 1100 feet AGL
Clouds: overcast cloud deck at 1100 feet AGL
Weather: BR  (mist)

METAR text: KCCR 051543Z 15003KT 6SM BR OVC011 12/09 A3008 RMK AO2 T01170094
Conditions at: KCCR (CONCORD , CA, US) observed 1543 UTC 05 December 2019
Temperature: 11.7°C (53°F)
Dewpoint: 9.4°C (49°F) [RH = 86%]
Pressure (altimeter): 30.08 inches Hg (1018.7 mb)
Winds: from the SSE (150 degrees) at 3 MPH (3 knots; 1.5 m/s)
Visibility: 6 miles (10 km)
Ceiling: 1100 feet AGL
Clouds: overcast cloud deck at 1100 feet AGL
Weather: BR  (mist)

METAR text: KCCR 051453Z AUTO 11003KT 5SM BR OVC007 12/10 A3005 RMK AO2 CIG 005V009 SLP162 T01170100 53009
Conditions at: KCCR (CONCORD , CA, US) observed 1453 UTC 05 December 2019
Temperature: 11.7°C (53°F)
Dewpoint: 10.0°C (50°F) [RH = 89%]
Pressure (altimeter): 30.05 inches Hg (1017.7 mb)
[Sea-level pressure: 1016.2 mb]
Winds: from the ESE (110 degrees) at 3 MPH (3 knots; 1.5 m/s)
Visibility: 5 miles ( 8 km)
Ceiling: 700 feet AGL
Clouds: overcast cloud deck at 700 feet AGL
Weather: BR  (mist)

METAR text: KCCR 051353Z AUTO 00000KT 5SM BR OVC007 12/10 A3004 RMK AO2 SLP157 T01170100
Conditions at: KCCR (CONCORD , CA, US) observed 1353 UTC 05 December 2019
Temperature: 11.7°C (53°F)
Dewpoint: 10.0°C (50°F) [RH = 89%]
Pressure (altimeter): 30.04 inches Hg (1017.4 mb)
[Sea-level pressure: 1015.7 mb]
Winds: calm
Visibility: 5 miles ( 8 km)
Ceiling: 700 feet AGL
Clouds: overcast cloud deck at 700 feet AGL
Weather: BR  (mist)

METAR text: KCCR 051253Z AUTO 00000KT 4SM BR OVC006 12/10 A3002 RMK AO2 SLP153 T01170100
Conditions at: KCCR (CONCORD , CA, US) observed 1253 UTC 05 December 2019
Temperature: 11.7°C (53°F)
Dewpoint: 10.0°C (50°F) [RH = 89%]
Pressure (altimeter): 30.02 inches Hg (1016.7 mb)
[Sea-level pressure: 1015.3 mb]
Winds: calm
Visibility: 4 miles ( 6 km)
Ceiling: 600 feet AGL
Clouds: overcast cloud deck at 600 feet AGL
Weather: BR  (mist)

METAR text: KCCR 051225Z AUTO 00000KT 2SM BR OVC006 12/10 A3003 RMK AO2 T01170100
Conditions at: KCCR (CONCORD , CA, US) observed 1225 UTC 05 December 2019
Temperature: 11.7°C (53°F)
Dewpoint: 10.0°C (50°F) [RH = 89%]
Pressure (altimeter): 30.03 inches Hg (1017.0 mb)
Winds: calm
Visibility: 2.00 miles (3.22 km)
Ceiling: 600 feet AGL
Clouds: overcast cloud deck at 600 feet AGL
Weather: BR  (mist)

METAR text: KCCR 051153Z AUTO 00000KT 1 1/2SM BR OVC007 12/10 A3001 RMK AO2 SLP149 60000 70023 T01170100 10133 20106 51003
Conditions at: KCCR (CONCORD , CA, US) observed 1153 UTC 05 December 2019
Temperature: 11.7°C (53°F)
Dewpoint: 10.0°C (50°F) [RH = 89%]
Pressure (altimeter): 30.01 inches Hg (1016.3 mb)
[Sea-level pressure: 1014.9 mb]
Winds: calm
Visibility: 1.50 miles (2.41 km)
Ceiling: 700 feet AGL
Clouds: overcast cloud deck at 700 feet AGL
Weather: BR  (mist)

METAR text: KCCR 051134Z AUTO 00000KT 1 1/4SM BR OVC008 12/10 A3001 RMK AO2 T01170100
Conditions at: KCCR (CONCORD , CA, US) observed 1134 UTC 05 December 2019
Temperature: 11.7°C (53°F)
Dewpoint: 10.0°C (50°F) [RH = 89%]
Pressure (altimeter): 30.01 inches Hg (1016.3 mb)
Winds: calm
Visibility: 1.25 miles (2.01 km)
Ceiling: 800 feet AGL
Clouds: overcast cloud deck at 800 feet AGL
Weather: BR  (mist)

METAR text: KCCR 051125Z AUTO 00000KT 1SM BR OVC010 11/09 A3001 RMK AO2 T01110094
Conditions at: KCCR (CONCORD , CA, US) observed 1125 UTC 05 December 2019
Temperature: 11.1°C (52°F)
Dewpoint: 9.4°C (49°F) [RH = 89%]
Pressure (altimeter): 30.01 inches Hg (1016.3 mb)
Winds: calm
Visibility: 1.00 miles (1.61 km)
Ceiling: 1000 feet AGL
Clouds: overcast cloud deck at 1000 feet AGL
Weather: BR  (mist)

METAR text: KCCR 051116Z AUTO 00000KT 1/2SM FG OVC011 11/09 A3001 RMK AO2 T01110094
Conditions at: KCCR (CONCORD , CA, US) observed 1116 UTC 05 December 2019
Temperature: 11.1°C (52°F)
Dewpoint: 9.4°C (49°F) [RH = 89%]
Pressure (altimeter): 30.01 inches Hg (1016.3 mb)
Winds: calm
Visibility: 0.50 miles (0.80 km)
Ceiling: 1100 feet AGL
Clouds: overcast cloud deck at 1100 feet AGL
Weather: FG  (fog)

METAR text: KCCR 051053Z AUTO 00000KT 1 3/4SM BR OVC012 11/09 A3001 RMK AO2 SLP148 T01110094
Conditions at: KCCR (CONCORD , CA, US) observed 1053 UTC 05 December 2019
Temperature: 11.1°C (52°F)
Dewpoint: 9.4°C (49°F) [RH = 89%]
Pressure (altimeter): 30.01 inches Hg (1016.3 mb)
[Sea-level pressure: 1014.8 mb]
Winds: calm
Visibility: 1.75 miles (2.82 km)
Ceiling: 1200 feet AGL
Clouds: overcast cloud deck at 1200 feet AGL
Weather: BR  (mist)

METAR text: KCCR 051048Z AUTO 00000KT 2SM BR OVC012 11/09 A3001 RMK AO2
Conditions at: KCCR (CONCORD , CA, US) observed 1048 UTC 05 December 2019
Temperature: 11.0°C (52°F)
Dewpoint: 9.0°C (48°F) [RH = 87%]
Pressure (altimeter): 30.01 inches Hg (1016.3 mb)
Winds: calm
Visibility: 2.00 miles (3.22 km)
Ceiling: 1200 feet AGL
Clouds: overcast cloud deck at 1200 feet AGL
Weather: BR  (mist)

METAR text: KCCR 051028Z AUTO 00000KT 1SM BR BKN013 11/09 A3001 RMK AO2 T01110094
Conditions at: KCCR (CONCORD , CA, US) observed 1028 UTC 05 December 2019
Temperature: 11.1°C (52°F)
Dewpoint: 9.4°C (49°F) [RH = 89%]
Pressure (altimeter): 30.01 inches Hg (1016.3 mb)
Winds: calm
Visibility: 1.00 miles (1.61 km)
Ceiling: 1300 feet AGL
Clouds: broken clouds at 1300 feet AGL
Weather: BR  (mist)

METAR text: KCCR 051017Z AUTO 00000KT 1/2SM FG VV012 11/09 A3000 RMK AO2 T01110094
Conditions at: KCCR (CONCORD , CA, US) observed 1017 UTC 05 December 2019
Temperature: 11.1°C (52°F)
Dewpoint: 9.4°C (49°F) [RH = 89%]
Pressure (altimeter): 30.00 inches Hg (1016.0 mb)
Winds: calm
Visibility: 0.50 miles (0.80 km)
Ceiling: indefinite ceiling with vertical visibility of 1200 feet AGL
Clouds: obscured sky
Weather: FG  (fog)

METAR text: KCCR 051013Z AUTO 00000KT 1 1/2SM BR FEW031 FEW041 12/10 A3000 RMK AO2 T01170100
Conditions at: KCCR (CONCORD , CA, US) observed 1013 UTC 05 December 2019
Temperature: 11.7°C (53°F)
Dewpoint: 10.0°C (50°F) [RH = 89%]
Pressure (altimeter): 30.00 inches Hg (1016.0 mb)
Winds: calm
Visibility: 1.50 miles (2.41 km)
Ceiling: at least 12,000 feet AGL
Clouds: few clouds at 3100 feet AGL
few clouds at 4100 feet AGL
Weather: BR  (mist)

METAR text: KCCR 050953Z AUTO 00000KT 4SM BR SCT029 BKN041 12/11 A3000 RMK AO2 SLP145 T01220106
Conditions at: KCCR (CONCORD , CA, US) observed 0953 UTC 05 December 2019
Temperature: 12.2°C (54°F)
Dewpoint: 10.6°C (51°F) [RH = 90%]
Pressure (altimeter): 30.00 inches Hg (1016.0 mb)
[Sea-level pressure: 1014.5 mb]
Winds: calm
Visibility: 4 miles ( 6 km)
Ceiling: 4100 feet AGL
Clouds: scattered clouds at 2900 feet AGL
broken clouds at 4100 feet AGL
Weather: BR  (mist)

METAR text: KCCR 050853Z AUTO 36003KT 4SM BR FEW007 OVC041 13/11 A2999 RMK AO2 SLP143 60000 T01280106 51011
Conditions at: KCCR (CONCORD , CA, US) observed 0853 UTC 05 December 2019
Temperature: 12.8°C (55°F)
Dewpoint: 10.6°C (51°F) [RH = 86%]
Pressure (altimeter): 29.99 inches Hg (1015.7 mb)
[Sea-level pressure: 1014.3 mb]
Winds: from the N (360 degrees) at 3 MPH (3 knots; 1.5 m/s)
Visibility: 4 miles ( 6 km)
Ceiling: 4100 feet AGL
Clouds: few clouds at 700 feet AGL
overcast cloud deck at 4100 feet AGL
Weather: BR  (mist)

METAR text: KCCR 050832Z AUTO 00000KT 4SM BR SCT006 OVC040 13/11 A2999 RMK AO2 T01280106
Conditions at: KCCR (CONCORD , CA, US) observed 0832 UTC 05 December 2019
Temperature: 12.8°C (55°F)
Dewpoint: 10.6°C (51°F) [RH = 86%]
Pressure (altimeter): 29.99 inches Hg (1015.7 mb)
Winds: calm
Visibility: 4 miles ( 6 km)
Ceiling: 4000 feet AGL
Clouds: scattered clouds at 600 feet AGL
overcast cloud deck at 4000 feet AGL
Weather: BR  (mist)

METAR text: KCCR 050753Z AUTO 00000KT 5SM BR OVC006 13/11 A2999 RMK AO2 RAE10 SLP141 P0000 T01280106 401390111
Conditions at: KCCR (CONCORD , CA, US) observed 0753 UTC 05 December 2019
Temperature: 12.8°C (55°F)
Dewpoint: 10.6°C (51°F) [RH = 86%]
Pressure (altimeter): 29.99 inches Hg (1015.7 mb)
[Sea-level pressure: 1014.1 mb]
Winds: calm
Visibility: 5 miles ( 8 km)
Ceiling: 600 feet AGL
Clouds: overcast cloud deck at 600 feet AGL
Weather: BR  (mist)

METAR text: KCCR 050653Z AUTO 04003KT 4SM -RA BR OVC006 13/11 A2999 RMK AO2 RAB49 SLP140 P0000 T01280106
Conditions at: KCCR (CONCORD , CA, US) observed 0653 UTC 05 December 2019
Temperature: 12.8°C (55°F)
Dewpoint: 10.6°C (51°F) [RH = 86%]
Pressure (altimeter): 29.99 inches Hg (1015.7 mb)
[Sea-level pressure: 1014.0 mb]
Winds: from the NE (40 degrees) at 3 MPH (3 knots; 1.5 m/s)
Visibility: 4 miles ( 6 km)
Ceiling: 600 feet AGL
Clouds: overcast cloud deck at 600 feet AGL
Weather: -RA BR  (light rain, mist)

METAR text: KCCR 050553Z 04004KT 5SM BR BKN005 OVC012 13/11 A2996 RMK AO2 SLP132 60000 T01280106 10139 20128 51017
Conditions at: KCCR (CONCORD , CA, US) observed 0553 UTC 05 December 2019
Temperature: 12.8°C (55°F)
Dewpoint: 10.6°C (51°F) [RH = 86%]
Pressure (altimeter): 29.96 inches Hg (1014.6 mb)
[Sea-level pressure: 1013.2 mb]
Winds: from the NE (40 degrees) at 5 MPH (4 knots; 2.1 m/s)
Visibility: 5 miles ( 8 km)
Ceiling: 500 feet AGL
Clouds: broken clouds at 500 feet AGL
overcast cloud deck at 1200 feet AGL
Weather: BR  (mist)

METAR text: KCCR 050453Z 03004KT 6SM BR BKN006 OVC015 13/11 A2995 RMK AO2 SLP129 T01280106
Conditions at: KCCR (CONCORD , CA, US) observed 0453 UTC 05 December 2019
Temperature: 12.8°C (55°F)
Dewpoint: 10.6°C (51°F) [RH = 86%]
Pressure (altimeter): 29.95 inches Hg (1014.3 mb)
[Sea-level pressure: 1012.9 mb]
Winds: from the NNE (30 degrees) at 5 MPH (4 knots; 2.1 m/s)
Visibility: 6 miles (10 km)
Ceiling: 600 feet AGL
Clouds: broken clouds at 600 feet AGL
overcast cloud deck at 1500 feet AGL
Weather: BR  (mist)

METAR text: KCCR 050443Z 04003KT 6SM BR BKN006 OVC014 13/11 A2995 RMK AO2 T01280106
Conditions at: KCCR (CONCORD , CA, US) observed 0443 UTC 05 December 2019
Temperature: 12.8°C (55°F)
Dewpoint: 10.6°C (51°F) [RH = 86%]
Pressure (altimeter): 29.95 inches Hg (1014.3 mb)
Winds: from the NE (40 degrees) at 3 MPH (3 knots; 1.5 m/s)
Visibility: 6 miles (10 km)
Ceiling: 600 feet AGL
Clouds: broken clouds at 600 feet AGL
overcast cloud deck at 1400 feet AGL
Weather: BR  (mist)

METAR text: KCCR 050413Z 07004KT 6SM BR FEW009 BKN014 OVC019 13/11 A2993 RMK AO2 T01280106
Conditions at: KCCR (CONCORD , CA, US) observed 0413 UTC 05 December 2019
Temperature: 12.8°C (55°F)
Dewpoint: 10.6°C (51°F) [RH = 86%]
Pressure (altimeter): 29.93 inches Hg (1013.6 mb)
Winds: from the ENE (70 degrees) at 5 MPH (4 knots; 2.1 m/s)
Visibility: 6 miles (10 km)
Ceiling: 1400 feet AGL
Clouds: few clouds at 900 feet AGL
broken clouds at 1400 feet AGL
overcast cloud deck at 1900 feet AGL
Weather: BR  (mist)

METAR text: KCCR 050353Z 05005KT 7SM SCT007 OVC019 13/11 A2993 RMK AO2 SLP120 T01280106
Conditions at: KCCR (CONCORD , CA, US) observed 0353 UTC 05 December 2019
Temperature: 12.8°C (55°F)
Dewpoint: 10.6°C (51°F) [RH = 86%]
Pressure (altimeter): 29.93 inches Hg (1013.6 mb)
[Sea-level pressure: 1012.0 mb]
Winds: from the NE (50 degrees) at 6 MPH (5 knots; 2.6 m/s)
Visibility: 7 miles (11 km)
Ceiling: 1900 feet AGL
Clouds: scattered clouds at 700 feet AGL
overcast cloud deck at 1900 feet AGL
Weather: no significant weather observed at this time

METAR text: KCCR 050300Z 00000KT 9SM BKN007 BKN012 OVC018 13/11 A2992 RMK AO2 T01330106
Conditions at: KCCR (CONCORD , CA, US) observed 0300 UTC 05 December 2019
Temperature: 13.3°C (56°F)
Dewpoint: 10.6°C (51°F) [RH = 84%]
Pressure (altimeter): 29.92 inches Hg (1013.3 mb)
Winds: calm
Visibility: 9 miles (14 km)
Ceiling: 700 feet AGL
Clouds: broken clouds at 700 feet AGL
broken clouds at 1200 feet AGL
overcast cloud deck at 1800 feet AGL
Weather: no significant weather observed at this time

METAR text: KCCR 050253Z 05003KT 9SM SCT007 OVC016 13/11 A2991 RMK AO2 SLP115 60000 T01280106 53020
Conditions at: KCCR (CONCORD , CA, US) observed 0253 UTC 05 December 2019
Temperature: 12.8°C (55°F)
Dewpoint: 10.6°C (51°F) [RH = 86%]
Pressure (altimeter): 29.91 inches Hg (1013.0 mb)
[Sea-level pressure: 1011.5 mb]
Winds: from the NE (50 degrees) at 3 MPH (3 knots; 1.5 m/s)
Visibility: 9 miles (14 km)
Ceiling: 1600 feet AGL
Clouds: scattered clouds at 700 feet AGL
overcast cloud deck at 1600 feet AGL
Weather: no significant weather observed at this time

METAR text: KCCR 050229Z 05004KT 9SM SCT009 BKN017 OVC110 13/11 A2991 RMK AO2 T01280106
Conditions at: KCCR (CONCORD , CA, US) observed 0229 UTC 05 December 2019
Temperature: 12.8°C (55°F)
Dewpoint: 10.6°C (51°F) [RH = 86%]
Pressure (altimeter): 29.91 inches Hg (1013.0 mb)
Winds: from the NE (50 degrees) at 5 MPH (4 knots; 2.1 m/s)
Visibility: 9 miles (14 km)
Ceiling: 1700 feet AGL
Clouds: scattered clouds at 900 feet AGL
broken clouds at 1700 feet AGL
overcast cloud deck at 11000 feet AGL
Weather: no significant weather observed at this time

METAR text: KCCR 050221Z VRB03KT 9SM SCT008 SCT090 OVC110 13/11 A2990 RMK AO2 T01280106
Conditions at: KCCR (CONCORD , CA, US) observed 0221 UTC 05 December 2019
Temperature: 12.8°C (55°F)
Dewpoint: 10.6°C (51°F) [RH = 86%]
Pressure (altimeter): 29.90 inches Hg (1012.6 mb)
Winds: variable direction winds at 3 MPH (3 knots; 1.5 m/s)
Visibility: 9 miles (14 km)
Ceiling: 11000 feet AGL
Clouds: scattered clouds at 800 feet AGL
scattered clouds at 9000 feet AGL
overcast cloud deck at 11000 feet AGL
Weather: no significant weather observed at this time

METAR text: KCCR 050153Z 02005KT 9SM SCT025 OVC100 13/11 A2989 RMK AO2 SLP107 T01280106
Conditions at: KCCR (CONCORD , CA, US) observed 0153 UTC 05 December 2019
Temperature: 12.8°C (55°F)
Dewpoint: 10.6°C (51°F) [RH = 86%]
Pressure (altimeter): 29.89 inches Hg (1012.3 mb)
[Sea-level pressure: 1010.7 mb]
Winds: from the NNE (20 degrees) at 6 MPH (5 knots; 2.6 m/s)
Visibility: 9 miles (14 km)
Ceiling: 10000 feet AGL
Clouds: scattered clouds at 2500 feet AGL
overcast cloud deck at 10000 feet AGL
Weather: no significant weather observed at this time

METAR text: KCCR 050120Z 02004KT 8SM SCT026 SCT095 OVC110 13/10 A2988 RMK AO2 T01330100
Conditions at: KCCR (CONCORD , CA, US) observed 0120 UTC 05 December 2019
Temperature: 13.3°C (56°F)
Dewpoint: 10.0°C (50°F) [RH = 80%]
Pressure (altimeter): 29.88 inches Hg (1011.9 mb)
Winds: from the NNE (20 degrees) at 5 MPH (4 knots; 2.1 m/s)
Visibility: 8 miles (13 km)
Ceiling: 11000 feet AGL
Clouds: scattered clouds at 2600 feet AGL
scattered clouds at 9500 feet AGL
overcast cloud deck at 11000 feet AGL
Weather: no significant weather observed at this time

METAR text: KCCR 050053Z 02003KT 7SM OVC025 13/11 A2987 RMK AO2 RAB37E46 SLP102 P0000 T01330106
Conditions at: KCCR (CONCORD , CA, US) observed 0053 UTC 05 December 2019
Temperature: 13.3°C (56°F)
Dewpoint: 10.6°C (51°F) [RH = 84%]
Pressure (altimeter): 29.87 inches Hg (1011.6 mb)
[Sea-level pressure: 1010.2 mb]
Winds: from the NNE (20 degrees) at 3 MPH (3 knots; 1.5 m/s)
Visibility: 7 miles (11 km)
Ceiling: 2500 feet AGL
Clouds: overcast cloud deck at 2500 feet AGL
Weather: no significant weather observed at this time

METAR text: KCCR 042353Z 04004KT 9SM SCT011 OVC016 14/11 A2985 RMK AO2 SLP095 60010 T01390106 10139 20111 53007
Conditions at: KCCR (CONCORD , CA, US) observed 2353 UTC 04 December 2019
Temperature: 13.9°C (57°F)
Dewpoint: 10.6°C (51°F) [RH = 80%]
Pressure (altimeter): 29.85 inches Hg (1010.9 mb)
[Sea-level pressure: 1009.5 mb]
Winds: from the NE (40 degrees) at 5 MPH (4 knots; 2.1 m/s)
Visibility: 9 miles (14 km)
Ceiling: 1600 feet AGL
Clouds: scattered clouds at 1100 feet AGL
overcast cloud deck at 1600 feet AGL
Weather: no significant weather observed at this time

METAR text: KCCR 042336Z 04003KT 10SM BKN014 OVC019 14/11 A2984 RMK AO2 T01390106
Conditions at: KCCR (CONCORD , CA, US) observed 2336 UTC 04 December 2019
Temperature: 13.9°C (57°F)
Dewpoint: 10.6°C (51°F) [RH = 80%]
Pressure (altimeter): 29.84 inches Hg (1010.6 mb)
Winds: from the NE (40 degrees) at 3 MPH (3 knots; 1.5 m/s)
Visibility: 10 or more miles (16+ km)
Ceiling: 1400 feet AGL
Clouds: broken clouds at 1400 feet AGL
overcast cloud deck at 1900 feet AGL
Weather: no significant weather observed at this time

METAR text: KCCR 042253Z 03003KT 10SM FEW009 OVC016 14/11 A2984 RMK AO2 SLP090 T01390106
Conditions at: KCCR (CONCORD , CA, US) observed 2253 UTC 04 December 2019
Temperature: 13.9°C (57°F)
Dewpoint: 10.6°C (51°F) [RH = 80%]
Pressure (altimeter): 29.84 inches Hg (1010.6 mb)
[Sea-level pressure: 1009.0 mb]
Winds: from the NNE (30 degrees) at 3 MPH (3 knots; 1.5 m/s)
Visibility: 10 or more miles (16+ km)
Ceiling: 1600 feet AGL
Clouds: few clouds at 900 feet AGL
overcast cloud deck at 1600 feet AGL
Weather: no significant weather observed at this time

METAR text: KCCR 042200Z 00000KT 10SM FEW007 OVC013 13/11 A2984 RMK AO2 T01280106
Conditions at: KCCR (CONCORD , CA, US) observed 2200 UTC 04 December 2019
Temperature: 12.8°C (55°F)
Dewpoint: 10.6°C (51°F) [RH = 86%]
Pressure (altimeter): 29.84 inches Hg (1010.6 mb)
Winds: calm
Visibility: 10 or more miles (16+ km)
Ceiling: 1300 feet AGL
Clouds: few clouds at 700 feet AGL
overcast cloud deck at 1300 feet AGL
Weather: no significant weather observed at this time

METAR text: KCCR 042153Z 01003KT 4SM BR OVC005 13/11 A2984 RMK AO2 SLP089 T01280106
Conditions at: KCCR (CONCORD , CA, US) observed 2153 UTC 04 December 2019
Temperature: 12.8°C (55°F)
Dewpoint: 10.6°C (51°F) [RH = 86%]
Pressure (altimeter): 29.84 inches Hg (1010.6 mb)
[Sea-level pressure: 1008.9 mb]
Winds: from the N (10 degrees) at 3 MPH (3 knots; 1.5 m/s)
Visibility: 4 miles ( 6 km)
Ceiling: 500 feet AGL
Clouds: overcast cloud deck at 500 feet AGL
Weather: BR  (mist)

METAR text: KCCR 042100Z VRB05KT 4SM BR OVC005 12/11 A2983 RMK AO2 T01220106
Conditions at: KCCR (CONCORD , CA, US) observed 2100 UTC 04 December 2019
Temperature: 12.2°C (54°F)
Dewpoint: 10.6°C (51°F) [RH = 90%]
Pressure (altimeter): 29.83 inches Hg (1010.2 mb)
Winds: variable direction winds at 6 MPH (5 knots; 2.6 m/s)
Visibility: 4 miles ( 6 km)
Ceiling: 500 feet AGL
Clouds: overcast cloud deck at 500 feet AGL
Weather: BR  (mist)

METAR text: KCCR 042053Z 36006KT 2 1/2SM BR OVC005 12/11 A2983 RMK AO2 RAE52 CIG 004V007 SLP089 P0004 60010 T01220106 58020
Conditions at: KCCR (CONCORD , CA, US) observed 2053 UTC 04 December 2019
Temperature: 12.2°C (54°F)
Dewpoint: 10.6°C (51°F) [RH = 90%]
Pressure (altimeter): 29.83 inches Hg (1010.2 mb)
[Sea-level pressure: 1008.9 mb]
Winds: from the N (360 degrees) at 7 MPH (6 knots; 3.1 m/s)
Visibility: 2.50 miles (4.02 km)
Ceiling: 500 feet AGL
Clouds: overcast cloud deck at 500 feet AGL
Weather: BR  (mist)

METAR text: KCCR 041953Z 02004KT 2 1/2SM -RA BR OVC006 12/10 A2986 RMK AO2 SLP099 P0004 T01170100
Conditions at: KCCR (CONCORD , CA, US) observed 1953 UTC 04 December 2019
Temperature: 11.7°C (53°F)
Dewpoint: 10.0°C (50°F) [RH = 89%]
Pressure (altimeter): 29.86 inches Hg (1011.3 mb)
[Sea-level pressure: 1009.9 mb]
Winds: from the NNE (20 degrees) at 5 MPH (4 knots; 2.1 m/s)
Visibility: 2.50 miles (4.02 km)
Ceiling: 600 feet AGL
Clouds: overcast cloud deck at 600 feet AGL
Weather: -RA BR  (light rain, mist)

METAR text: KCCR 041853Z 04008KT 5SM -RA BR BKN005 OVC011 12/09 A2988 RMK AO2 SLP104 P0002 T01170094
Conditions at: KCCR (CONCORD , CA, US) observed 1853 UTC 04 December 2019
Temperature: 11.7°C (53°F)
Dewpoint: 9.4°C (49°F) [RH = 86%]
Pressure (altimeter): 29.88 inches Hg (1011.9 mb)
[Sea-level pressure: 1010.4 mb]
Winds: from the NE (40 degrees) at 9 MPH (8 knots; 4.1 m/s)
Visibility: 5 miles ( 8 km)
Ceiling: 500 feet AGL
Clouds: broken clouds at 500 feet AGL
overcast cloud deck at 1100 feet AGL
Weather: -RA BR  (light rain, mist)

METAR text: KCCR 041753Z 04004KT 5SM -RA BR OVC005 11/09 A2989 RMK AO2 SLP108 P0002 60013 T01110094 10117 20111 53014
Conditions at: KCCR (CONCORD , CA, US) observed 1753 UTC 04 December 2019
Temperature: 11.1°C (52°F)
Dewpoint: 9.4°C (49°F) [RH = 89%]
Pressure (altimeter): 29.89 inches Hg (1012.3 mb)
[Sea-level pressure: 1010.8 mb]
Winds: from the NE (40 degrees) at 5 MPH (4 knots; 2.1 m/s)
Visibility: 5 miles ( 8 km)
Ceiling: 500 feet AGL
Clouds: overcast cloud deck at 500 feet AGL
Weather: -RA BR  (light rain, mist)

METAR text: KCCR 041700Z 06006KT 5SM -RA BR OVC006 12/09 A2988 RMK AO2 P0000 T01170094
Conditions at: KCCR (CONCORD , CA, US) observed 1700 UTC 04 December 2019
Temperature: 11.7°C (53°F)
Dewpoint: 9.4°C (49°F) [RH = 86%]
Pressure (altimeter): 29.88 inches Hg (1011.9 mb)
Winds: from the ENE (60 degrees) at 7 MPH (6 knots; 3.1 m/s)
Visibility: 5 miles ( 8 km)
Ceiling: 600 feet AGL
Clouds: overcast cloud deck at 600 feet AGL
Weather: -RA BR  (light rain, mist)

METAR text: KCCR 041653Z 03003KT 2 1/2SM -RA BR OVC006 11/09 A2988 RMK AO2 SLP103 P0004 T01110094
Conditions at: KCCR (CONCORD , CA, US) observed 1653 UTC 04 December 2019
Temperature: 11.1°C (52°F)
Dewpoint: 9.4°C (49°F) [RH = 89%]
Pressure (altimeter): 29.88 inches Hg (1011.9 mb)
[Sea-level pressure: 1010.3 mb]
Winds: from the NNE (30 degrees) at 3 MPH (3 knots; 1.5 m/s)
Visibility: 2.50 miles (4.02 km)
Ceiling: 600 feet AGL
Clouds: overcast cloud deck at 600 feet AGL
Weather: -RA BR  (light rain, mist)

METAR text: KCCR 041553Z 06004KT 2 1/2SM -RA BR OVC007 11/09 A2986 RMK AO2 SLP098 P0001 T01110094
Conditions at: KCCR (CONCORD , CA, US) observed 1553 UTC 04 December 2019
Temperature: 11.1°C (52°F)
Dewpoint: 9.4°C (49°F) [RH = 89%]
Pressure (altimeter): 29.86 inches Hg (1011.3 mb)
[Sea-level pressure: 1009.8 mb]
Winds: from the ENE (60 degrees) at 5 MPH (4 knots; 2.1 m/s)
Visibility: 2.50 miles (4.02 km)
Ceiling: 700 feet AGL
Clouds: overcast cloud deck at 700 feet AGL
Weather: -RA BR  (light rain, mist)

METAR text: KCCR 041502Z 02006KT 2 1/2SM -RA BR OVC007 11/09 A2985 RMK AO2 CIG 005V011 P0000 T01110089
Conditions at: KCCR (CONCORD , CA, US) observed 1502 UTC 04 December 2019
Temperature: 11.1°C (52°F)
Dewpoint: 8.9°C (48°F) [RH = 86%]
Pressure (altimeter): 29.85 inches Hg (1010.9 mb)
Winds: from the NNE (20 degrees) at 7 MPH (6 knots; 3.1 m/s)
Visibility: 2.50 miles (4.02 km)
Ceiling: 700 feet AGL
Clouds: overcast cloud deck at 700 feet AGL
Weather: -RA BR  (light rain, mist)

METAR text: KCCR 041453Z 02006KT 6SM -RA BR OVC006 11/09 A2985 RMK AO2 SLP094 P0001 60006 T01110089 56007
Conditions at: KCCR (CONCORD , CA, US) observed 1453 UTC 04 December 2019
Temperature: 11.1°C (52°F)
Dewpoint: 8.9°C (48°F) [RH = 86%]
Pressure (altimeter): 29.85 inches Hg (1010.9 mb)
[Sea-level pressure: 1009.4 mb]
Winds: from the NNE (20 degrees) at 7 MPH (6 knots; 3.1 m/s)
Visibility: 6 miles (10 km)
Ceiling: 600 feet AGL
Clouds: overcast cloud deck at 600 feet AGL
Weather: -RA BR  (light rain, mist)

METAR text: KCCR 041415Z AUTO 01007KT 6SM -RA BR BKN006 OVC035 11/09 A2985 RMK AO2 P0001 T01110089
Conditions at: KCCR (CONCORD , CA, US) observed 1415 UTC 04 December 2019
Temperature: 11.1°C (52°F)
Dewpoint: 8.9°C (48°F) [RH = 86%]
Pressure (altimeter): 29.85 inches Hg (1010.9 mb)
Winds: from the N (10 degrees) at 8 MPH (7 knots; 3.6 m/s)
Visibility: 6 miles (10 km)
Ceiling: 600 feet AGL
Clouds: broken clouds at 600 feet AGL
overcast cloud deck at 3500 feet AGL
Weather: -RA BR  (light rain, mist)

METAR text: KCCR 041353Z AUTO 03006KT 7SM -RA SCT006 OVC039 11/09 A2985 RMK AO2 SLP095 P0002 T01110089
Conditions at: KCCR (CONCORD , CA, US) observed 1353 UTC 04 December 2019
Temperature: 11.1°C (52°F)
Dewpoint: 8.9°C (48°F) [RH = 86%]
Pressure (altimeter): 29.85 inches Hg (1010.9 mb)
[Sea-level pressure: 1009.5 mb]
Winds: from the NNE (30 degrees) at 7 MPH (6 knots; 3.1 m/s)
Visibility: 7 miles (11 km)
Ceiling: 3900 feet AGL
Clouds: scattered clouds at 600 feet AGL
overcast cloud deck at 3900 feet AGL
Weather: -RA  (light rain)